| time (UTC) | temp C | wind direction | speed KPH | gust KPH | rain 1hr cm | rain 24hr cm | rain mn cm | humidity % | barometer mb |
| 20260506103017 | 16 | 0.0 | 0.0 | 0.00 | 0.00 | 0.00 | |||
| 20260506102016 | 16 | 0.0 | 0.0 | 0.00 | 0.00 | 0.00 | |||
| 20260506101037 | 16 | 113 | 1.6 | 41.8 | 0.00 | 0.00 | 0.00 | ||
| 20260506100016 | 16 | 113 | 8.0 | 98.2 | 0.00 | 0.00 | 0.00 | ||
| 20260506095016 | 15 | 0.0 | 16.1 | 0.00 | 0.00 | 0.00 | |||
| 20260506094016 | 15 | 0.0 | 0.0 | 0.00 | 0.00 | 0.00 | |||
| 20260506093016 | 16 | 0.0 | 11.3 | 0.00 | 0.00 | 0.00 | |||
| 20260506092037 | 15 | 113 | 6.4 | 154.5 | 0.00 | 0.00 | 0.00 | ||
| 20260506091056 | 15 | 90 | 156.1 | 156.1 | 0.00 | 0.00 | 0.00 | ||
| 20260506090036 | 15 | 113 | 156.1 | 156.1 | 0.00 | 0.00 | 0.00 | ||
| 20260506085017 | 15 | 113 | 1.6 | 40.2 | 0.00 | 0.00 | 0.00 | ||
| 20260506084016 | 15 | 113 | 41.8 | 156.1 | 0.00 | 0.00 | 0.00 | ||
| 20260506083016 | 15 | 113 | 14.5 | 156.1 | 0.00 | 0.00 | 0.00 | ||
| 20260506082016 | 15 | 113 | 136.8 | 156.1 | 0.00 | 0.00 | 0.00 | ||
| 20260506081016 | 15 | 113 | 70.8 | 156.1 | 0.00 | 0.00 | 0.00 | ||
| 20260506073016 | 13 | 90 | 156.1 | 156.1 | 0.00 | 0.00 | 0.00 | ||
| 20260506072036 | 13 | 113 | 156.1 | 156.1 | 0.00 | 0.00 | 0.00 | ||
| 20260506071036 | 13 | 113 | 156.1 | 156.1 | 0.00 | 0.00 | 0.00 | ||
| 20260506062136 | 13 | 90 | 156.1 | 156.1 | 0.00 | 0.00 | 0.00 | ||
| 20260506061036 | 13 | 135 | 156.1 | 156.1 | 0.00 | 0.00 | 0.00 | ||
| 20260506051015 | 13 | 90 | 156.1 | 156.1 | 0.00 | 0.00 | 0.00 | ||
| 20260506045015 | 13 | 90 | 156.1 | 156.1 | 0.00 | 0.00 | 0.00 | ||
| 20260506044015 | 13 | 68 | 156.1 | 156.1 | 0.00 | 0.00 | 0.00 | ||
| 20260506043018 | 13 | 45 | 156.1 | 156.1 | 0.00 | 0.00 | 0.00 | ||
| 20260506042038 | 13 | 45 | 156.1 | 156.1 | 0.00 | 0.00 | 0.00 | ||
| 20260506041017 | 13 | 45 | 156.1 | 156.1 | 0.00 | 0.00 | 0.00 | ||
| 20260506040037 | 13 | 45 | 156.1 | 156.1 | 0.00 | 0.00 | 0.00 | ||
| 20260506035017 | 13 | 45 | 156.1 | 156.1 | 0.00 | 0.00 | 0.00 | ||
| 20260506034017 | 13 | 113 | 156.1 | 156.1 | 0.00 | 0.00 | 0.00 | ||
| 20260506033017 | 13 | 113 | 156.1 | 156.1 | 0.00 | 0.00 | 0.00 | ||
| 20260506032017 | 13 | 113 | 156.1 | 156.1 | 0.00 | 0.00 | 0.00 | ||
| 20260506031037 | 13 | 113 | 156.1 | 156.1 | 0.00 | 0.00 | 0.00 | ||
| 20260506030037 | 13 | 90 | 156.1 | 156.1 | 0.00 | 0.00 | 0.00 | ||
| 20260506025017 | 13 | 90 | 156.1 | 156.1 | 0.00 | 0.00 | 0.00 | ||
| 20260506024017 | 13 | 90 | 156.1 | 156.1 | 0.00 | 0.00 | 0.00 | ||
| 20260506023018 | 13 | 90 | 156.1 | 156.1 | 0.00 | 0.00 | 0.00 | ||
| 20260506022018 | 13 | 90 | 156.1 | 156.1 | 0.00 | 0.00 | 0.00 | ||
| 20260506021017 | 13 | 90 | 156.1 | 156.1 | 0.00 | 0.00 | 0.00 | ||
| 20260506020017 | 13 | 90 | 156.1 | 156.1 | 0.00 | 0.00 | 0.00 | ||
| 20260506015017 | 13 | 90 | 156.1 | 156.1 | 0.00 | 0.00 | 0.00 | ||
| 20260506014018 | 13 | 90 | 156.1 | 156.1 | 0.00 | 0.00 | 0.00 | ||
| 20260506013038 | 13 | 90 | 156.1 | 156.1 | 0.00 | 0.00 | 0.00 | ||
| 20260506012017 | 13 | 113 | 156.1 | 156.1 | 0.00 | 0.00 | 0.00 | ||
| 20260506011017 | 13 | 113 | 156.1 | 156.1 | 0.00 | 0.00 | 0.00 | ||
| 20260506010039 | 13 | 90 | 156.1 | 156.1 | 0.00 | 0.00 | 0.00 | ||
| 20260506005017 | 13 | 90 | 156.1 | 156.1 | 0.00 | 0.00 | 0.00 | ||
| 20260506004017 | 13 | 90 | 156.1 | 156.1 | 0.00 | 0.00 | 0.00 | ||
| 20260506003037 | 13 | 90 | 156.1 | 156.1 | 0.00 | 0.00 | 0.00 | ||
| 20260506002037 | 13 | 90 | 156.1 | 156.1 | 0.00 | 0.00 | 0.00 | ||
| 20260506001017 | 13 | 90 | 156.1 | 156.1 | 0.00 | 0.00 | 0.00 | ||
| 20260506000016 | 13 | 90 | 156.1 | 156.1 | 0.00 | 0.00 | 0.00 | ||
| 20260505235017 | 13 | 90 | 156.1 | 156.1 | 0.00 | 0.00 | 0.00 | ||
| 20260505234037 | 13 | 90 | 156.1 | 156.1 | 0.00 | 0.00 | 0.00 | ||
| 20260505233016 | 13 | 90 | 156.1 | 156.1 | 0.00 | 0.00 | 0.00 | ||
| 20260505232036 | 13 | 90 | 156.1 | 156.1 | 0.00 | 0.00 | 0.00 | ||
| 20260505231037 | 13 | 113 | 156.1 | 156.1 | 0.00 | 0.00 | 0.00 | ||
| 20260505230017 | 13 | 113 | 156.1 | 156.1 | 0.00 | 0.00 | 0.00 | ||
| 20260505225019 | 13 | 113 | 156.1 | 156.1 | 0.00 | 0.00 | 0.00 | ||
| 20260505224017 | 13 | 113 | 156.1 | 156.1 | 0.00 | 0.00 | 0.00 | ||
| 20260505223016 | 14 | 113 | 156.1 | 156.1 | 0.00 | 0.00 | 0.00 | ||
| 20260505222016 | 14 | 113 | 156.1 | 156.1 | 0.00 | 0.00 | 0.00 | ||
| 20260505221017 | 14 | 113 | 156.1 | 156.1 | 0.00 | 0.00 | 0.00 | ||
| 20260505220017 | 14 | 113 | 156.1 | 156.1 | 0.00 | 0.00 | 0.00 | ||
| 20260505215016 | 15 | 113 | 156.1 | 156.1 | 0.00 | 0.00 | 0.00 | ||
| 20260505214016 | 15 | 90 | 156.1 | 156.1 | 0.00 | 0.00 | 0.00 | ||
| 20260505213016 | 15 | 90 | 156.1 | 156.1 | 0.00 | 0.00 | 0.00 | ||
| 20260505212016 | 15 | 90 | 156.1 | 156.1 | 0.00 | 0.00 | 0.00 | ||
| 20260505211016 | 15 | 90 | 143.2 | 156.1 | 0.00 | 0.00 | 0.00 | ||
| 20260505210036 | 15 | 90 | 22.5 | 156.1 | 0.00 | 0.00 | 0.00 | ||
| 20260505205016 | 15 | 90 | 72.4 | 156.1 | 0.00 | 0.00 | 0.00 | ||
| 20260505204016 | 15 | 90 | 20.9 | 151.3 | 0.00 | 0.00 | 0.00 | ||
| 20260505203016 | 15 | 90 | 91.7 | 156.1 | 0.00 | 0.00 | 0.00 | ||
| 20260505202016 | 15 | 90 | 12.9 | 111.0 | 0.00 | 0.00 | 0.00 | ||
| 20260505201037 | 15 | 90 | 115.9 | 156.1 | 0.00 | 0.00 | 0.00 | ||
| 20260505200036 | 16 | 90 | 1.6 | 30.6 | 0.00 | 0.00 | 0.00 | ||
| 20260505195015 | 16 | 0.0 | 0.0 | 0.00 | 0.00 | 0.00 | |||
| 20260505194015 | 16 | 90 | 1.6 | 49.9 | 0.00 | 0.00 | 0.00 | ||
| 20260505193015 | 16 | 0.0 | 0.0 | 0.00 | 0.00 | 0.00 | |||
| 20260505192016 | 16 | 0.0 | 0.0 | 0.00 | 0.00 | 0.00 | |||
| 20260505191056 | 16 | 0.0 | 0.0 | 0.00 | 0.00 | 0.00 | |||
| 20260505190016 | 16 | 0.0 | 0.0 | 0.00 | 0.00 | 0.00 | |||
| 20260505185016 | 16 | 0.0 | 0.0 | 0.00 | 0.00 | 0.00 | |||
| 20260505184015 | 16 | 0.0 | 0.0 | 0.00 | 0.00 | 0.00 | |||
| 20260505183015 | 16 | 0.0 | 0.0 | 0.00 | 0.00 | 0.00 | |||
| 20260505182017 | 16 | 0.0 | 0.0 | 0.00 | 0.00 | 0.00 | |||
| 20260505181100 | 16 | 0.0 | 0.0 | 0.00 | 0.00 | 0.00 | |||
| 20260505180017 | 16 | 0.0 | 0.0 | 0.00 | 0.00 | 0.00 | |||
| 20260505175039 | 16 | 0.0 | 0.0 | 0.00 | 0.00 | 0.00 | |||
| 20260505174038 | 16 | 0.0 | 0.0 | 0.00 | 0.00 | 0.00 | |||
| 20260505173018 | 16 | 0.0 | 0.0 | 0.00 | 0.00 | 0.00 | |||
| 20260505172017 | 16 | 0.0 | 0.0 | 0.00 | 0.00 | 0.00 | |||
| 20260505171017 | 16 | 0.0 | 0.0 | 0.00 | 0.00 | 0.00 | |||
| 20260505170017 | 16 | 0.0 | 0.0 | 0.00 | 0.00 | 0.00 | |||
| 20260505165017 | 16 | 0.0 | 0.0 | 0.00 | 0.00 | 0.00 | |||
| 20260505164017 | 16 | 0.0 | 0.0 | 0.00 | 0.00 | 0.00 | |||
| 20260505163017 | 16 | 0.0 | 0.0 | 0.00 | 0.00 | 0.00 | |||
| 20260505162018 | 16 | 0.0 | 0.0 | 0.00 | 0.00 | 0.00 | |||
| 20260505161017 | 16 | 0.0 | 0.0 | 0.00 | 0.00 | 0.00 | |||
| 20260505153016 | 16 | 0.0 | 0.0 | 0.00 | 0.00 | 0.00 | |||
| 20260505152016 | 16 | 0.0 | 0.0 | 0.00 | 0.00 | 0.00 | |||
| 20260505151016 | 16 | 0.0 | 0.0 | 0.00 | 0.00 | 0.00 | |||
| 20260505125036 | 16 | 0.0 | 0.0 | 0.00 | 0.00 | 0.00 | |||
| 20260505124015 | 16 | 0.0 | 0.0 | 0.00 | 0.00 | 0.00 | |||
| 20260505123015 | 16 | 0.0 | 0.0 | 0.00 | 0.00 | 0.00 | |||
| 20260505122015 | 16 | 0.0 | 0.0 | 0.00 | 0.00 | 0.00 | |||
| 20260505121016 | 16 | 0.0 | 0.0 | 0.00 | 0.00 | 0.00 | |||
| 20260505120016 | 16 | 0.0 | 0.0 | 0.00 | 0.00 | 0.00 | |||
| 20260505115015 | 16 | 0.0 | 0.0 | 0.00 | 0.00 | 0.00 | |||
| 20260505114015 | 16 | 0.0 | 0.0 | 0.00 | 0.00 | 0.00 | |||
| 20260505113017 | 16 | 0.0 | 0.0 | 0.00 | 0.00 | 0.00 |